sensor_id;sensor_type;location;lat;lon;timestamp;pressure;altitude;pressure_sealevel;temperature;humidity
46448;BME280;32145;50.390;30.778;2024-02-21T00:00:34;100353.97;;;-0.37;87.17
46448;BME280;32145;50.390;30.778;2024-02-21T00:03:30;100344.81;;;-0.35;87.18
46448;BME280;32145;50.390;30.778;2024-02-21T00:06:27;100349.34;;;-0.35;87.18
46448;BME280;32145;50.390;30.778;2024-02-21T00:09:23;100345.66;;;-0.34;87.22
46448;BME280;32145;50.390;30.778;2024-02-21T00:12:17;100329.69;;;-0.34;87.42
46448;BME280;32145;50.390;30.778;2024-02-21T00:15:13;100333.03;;;-0.32;87.14
46448;BME280;32145;50.390;30.778;2024-02-21T00:18:09;100333.03;;;-0.32;87.20
46448;BME280;32145;50.390;30.778;2024-02-21T00:21:06;100326.03;;;-0.33;87.44
46448;BME280;32145;50.390;30.778;2024-02-21T00:24:02;100333.03;;;-0.32;87.39
46448;BME280;32145;50.390;30.778;2024-02-21T00:26:58;100325.88;;;-0.32;87.40
46448;BME280;32145;50.390;30.778;2024-02-21T00:29:54;100323.91;;;-0.30;87.36
46448;BME280;32145;50.390;30.778;2024-02-21T00:32:52;100315.91;;;-0.30;87.45
46448;BME280;32145;50.390;30.778;2024-02-21T00:35:49;100308.75;;;-0.29;87.37
46448;BME280;32145;50.390;30.778;2024-02-21T00:38:45;100314.06;;;-0.29;87.34
46448;BME280;32145;50.390;30.778;2024-02-21T00:41:41;100306.94;;;-0.29;87.47
46448;BME280;32145;50.390;30.778;2024-02-21T00:44:37;100307.75;;;-0.28;87.36
46448;BME280;32145;50.390;30.778;2024-02-21T00:47:34;100300.44;;;-0.26;87.29
46448;BME280;32145;50.390;30.778;2024-02-21T00:50:31;100301.44;;;-0.27;87.27
46448;BME280;32145;50.390;30.778;2024-02-21T00:53:28;100295.97;;;-0.25;87.24
46448;BME280;32145;50.390;30.778;2024-02-21T00:56:24;100293.13;;;-0.24;87.52
46448;BME280;32145;50.390;30.778;2024-02-21T00:59:20;100287.66;;;-0.22;87.59
46448;BME280;32145;50.390;30.778;2024-02-21T01:02:17;100280.50;;;-0.22;87.66
46448;BME280;32145;50.390;30.778;2024-02-21T01:05:14;100287.50;;;-0.21;87.64
46448;BME280;32145;50.390;30.778;2024-02-21T01:08:09;100281.19;;;-0.20;87.57
46448;BME280;32145;50.390;30.778;2024-02-21T01:11:04;100282.03;;;-0.19;87.65
46448;BME280;32145;50.390;30.778;2024-02-21T01:13:58;100272.06;;;-0.17;87.66
46448;BME280;32145;50.390;30.778;2024-02-21T01:16:52;100284.38;;;-0.16;87.69
46448;BME280;32145;50.390;30.778;2024-02-21T01:19:47;100272.59;;;-0.14;87.77
46448;BME280;32145;50.390;30.778;2024-02-21T01:22:41;100273.44;;;-0.13;87.48
46448;BME280;32145;50.390;30.778;2024-02-21T01:25:39;100270.63;;;-0.11;87.75
46448;BME280;32145;50.390;30.778;2024-02-21T01:28:35;100267.09;;;-0.12;87.66
46448;BME280;32145;50.390;30.778;2024-02-21T01:31:31;100261.63;;;-0.10;87.84
46448;BME280;32145;50.390;30.778;2024-02-21T01:34:27;100262.47;;;-0.10;87.83
46448;BME280;32145;50.390;30.778;2024-02-21T01:37:24;100257.81;;;-0.08;87.64
46448;BME280;32145;50.390;30.778;2024-02-21T01:40:20;100258.81;;;-0.09;87.80
46448;BME280;32145;50.390;30.778;2024-02-21T01:43:19;100258.81;;;-0.09;87.91
46448;BME280;32145;50.390;30.778;2024-02-21T01:46:17;100255.00;;;-0.06;87.97
46448;BME280;32145;50.390;30.778;2024-02-21T01:49:14;100263.84;;;-0.06;88.18
46448;BME280;32145;50.390;30.778;2024-02-21T01:52:12;100253.00;;;-0.04;88.29
46448;BME280;32145;50.390;30.778;2024-02-21T01:55:10;100252.03;;;-0.03;88.12
46448;BME280;32145;50.390;30.778;2024-02-21T01:58:07;100260.00;;;-0.03;88.08
46448;BME280;32145;50.390;30.778;2024-02-21T02:01:05;100250.88;;;-0.01;88.12
46448;BME280;32145;50.390;30.778;2024-02-21T02:04:00;100260.69;;;-0.01;88.23
46448;BME280;32145;50.390;30.778;2024-02-21T02:06:55;100256.88;;;0.02;88.22
46448;BME280;32145;50.390;30.778;2024-02-21T02:09:50;100252.22;;;0.04;88.26
46448;BME280;32145;50.390;30.778;2024-02-21T02:12:44;100253.75;;;0.06;88.21
46448;BME280;32145;50.390;30.778;2024-02-21T02:15:40;100257.09;;;0.08;88.39
46448;BME280;32145;50.390;30.778;2024-02-21T02:18:35;100256.94;;;0.10;88.15
46448;BME280;32145;50.390;30.778;2024-02-21T02:21:32;100256.78;;;0.11;88.14
46448;BME280;32145;50.390;30.778;2024-02-21T02:24:30;100259.28;;;0.13;88.08
46448;BME280;32145;50.390;30.778;2024-02-21T02:27:24;100256.63;;;0.13;88.15
46448;BME280;32145;50.390;30.778;2024-02-21T02:30:18;100262.81;;;0.14;88.01
46448;BME280;32145;50.390;30.778;2024-02-21T02:33:13;100259.13;;;0.15;87.98
46448;BME280;32145;50.390;30.778;2024-02-21T02:36:07;100266.13;;;0.16;88.15
46448;BME280;32145;50.390;30.778;2024-02-21T02:39:01;100258.31;;;0.14;88.47
46448;BME280;32145;50.390;30.778;2024-02-21T02:41:59;100257.16;;;0.17;88.50
46448;BME280;32145;50.390;30.778;2024-02-21T02:44:55;100258.81;;;0.18;88.44
46448;BME280;32145;50.390;30.778;2024-02-21T02:47:51;100271.16;;;0.19;88.38
46448;BME280;32145;50.390;30.778;2024-02-21T02:50:47;100272.81;;;0.20;88.42
46448;BME280;32145;50.390;30.778;2024-02-21T02:53:44;100268.19;;;0.22;88.27
46448;BME280;32145;50.390;30.778;2024-02-21T02:56:38;100272.53;;;0.23;88.36
46448;BME280;32145;50.390;30.778;2024-02-21T02:59:34;100269.69;;;0.24;88.31
46448;BME280;32145;50.390;30.778;2024-02-21T03:02:30;100265.22;;;0.25;88.40
46448;BME280;32145;50.390;30.778;2024-02-21T03:05:26;100264.06;;;0.28;88.35
46448;BME280;32145;50.390;30.778;2024-02-21T03:08:22;100267.41;;;0.30;88.33
46448;BME280;32145;50.390;30.778;2024-02-21T03:11:19;100276.94;;;0.32;88.34
46448;BME280;32145;50.390;30.778;2024-02-21T03:14:15;100278.59;;;0.33;88.38
46448;BME280;32145;50.390;30.778;2024-02-21T03:17:12;100281.13;;;0.35;88.33
46448;BME280;32145;50.390;30.778;2024-02-21T03:20:09;100274.94;;;0.34;88.56
46448;BME280;32145;50.390;30.778;2024-02-21T03:23:06;100278.31;;;0.36;88.39
46448;BME280;32145;50.390;30.778;2024-02-21T03:26:02;100279.97;;;0.37;88.64
46448;BME280;32145;50.390;30.778;2024-02-21T03:28:59;100286.81;;;0.40;88.58
46448;BME280;32145;50.390;30.778;2024-02-21T03:31:55;100286.66;;;0.42;88.59
46448;BME280;32145;50.390;30.778;2024-02-21T03:34:53;100289.19;;;0.43;88.69
46448;BME280;32145;50.390;30.778;2024-02-21T03:37:49;100292.66;;;0.44;88.52
46448;BME280;32145;50.390;30.778;2024-02-21T03:40:46;100290.53;;;0.47;88.27
46448;BME280;32145;50.390;30.778;2024-02-21T03:43:42;100280.72;;;0.48;88.48
46448;BME280;32145;50.390;30.778;2024-02-21T03:46:38;100286.03;;;0.48;88.41
46448;BME280;32145;50.390;30.778;2024-02-21T03:49:35;100285.84;;;0.49;88.56
46448;BME280;32145;50.390;30.778;2024-02-21T03:52:30;100293.88;;;0.49;88.71
46448;BME280;32145;50.390;30.778;2024-02-21T03:55:25;100298.38;;;0.49;88.40
46448;BME280;32145;50.390;30.778;2024-02-21T03:58:19;100292.91;;;0.50;88.55
46448;BME280;32145;50.390;30.778;2024-02-21T04:01:15;100291.03;;;0.51;88.67
46448;BME280;32145;50.390;30.778;2024-02-21T04:04:09;100294.72;;;0.50;88.70
46448;BME280;32145;50.390;30.778;2024-02-21T04:07:04;100300.91;;;0.50;88.84
46448;BME280;32145;50.390;30.778;2024-02-21T04:10:00;100299.75;;;0.53;88.94
46448;BME280;32145;50.390;30.778;2024-02-21T04:12:54;100289.88;;;0.54;88.53
46448;BME280;32145;50.390;30.778;2024-02-21T04:15:48;100284.41;;;0.55;88.87
46448;BME280;32145;50.390;30.778;2024-02-21T04:18:42;100290.44;;;0.57;88.69
46448;BME280;32145;50.390;30.778;2024-02-21T04:21:37;100292.94;;;0.59;88.57
46448;BME280;32145;50.390;30.778;2024-02-21T04:24:32;100290.94;;;0.61;88.54
46448;BME280;32145;50.390;30.778;2024-02-21T04:27:29;100298.78;;;0.62;88.72
46448;BME280;32145;50.390;30.778;2024-02-21T04:30:25;100300.44;;;0.63;88.77
46448;BME280;32145;50.390;30.778;2024-02-21T04:33:22;100297.63;;;0.65;88.99
46448;BME280;32145;50.390;30.778;2024-02-21T04:36:18;100299.31;;;0.66;88.85
46448;BME280;32145;50.390;30.778;2024-02-21T04:39:14;100300.16;;;0.67;88.81
46448;BME280;32145;50.390;30.778;2024-02-21T04:42:09;100296.50;;;0.68;88.62
46448;BME280;32145;50.390;30.778;2024-02-21T04:45:06;100307.00;;;0.69;89.11
46448;BME280;32145;50.390;30.778;2024-02-21T04:48:03;100301.84;;;0.68;89.09
46448;BME280;32145;50.390;30.778;2024-02-21T04:50:59;100306.84;;;0.71;89.02
46448;BME280;32145;50.390;30.778;2024-02-21T04:53:55;100310.50;;;0.70;89.29
46448;BME280;32145;50.390;30.778;2024-02-21T04:56:51;100313.69;;;0.73;88.84
46448;BME280;32145;50.390;30.778;2024-02-21T04:59:47;100316.19;;;0.75;88.98
46448;BME280;32145;50.390;30.778;2024-02-21T05:02:45;100316.91;;;0.77;89.04
46448;BME280;32145;50.390;30.778;2024-02-21T05:05:41;100315.88;;;0.78;89.11
46448;BME280;32145;50.390;30.778;2024-02-21T05:08:38;100315.75;;;0.80;89.36
46448;BME280;32145;50.390;30.778;2024-02-21T05:11:34;100318.25;;;0.81;89.19
46448;BME280;32145;50.390;30.778;2024-02-21T05:14:28;100316.25;;;0.83;89.12
46448;BME280;32145;50.390;30.778;2024-02-21T05:17:22;100312.44;;;0.86;89.12
46448;BME280;32145;50.390;30.778;2024-02-21T05:20:20;100324.63;;;0.88;88.96
46448;BME280;32145;50.390;30.778;2024-02-21T05:23:16;100323.47;;;0.91;89.12
46448;BME280;32145;50.390;30.778;2024-02-21T05:26:20;100316.97;;;0.94;88.74
46448;BME280;32145;50.390;30.778;2024-02-21T05:29:16;100331.03;;;0.96;89.12
46448;BME280;32145;50.390;30.778;2024-02-21T05:32:12;100327.34;;;0.97;89.09
46448;BME280;32145;50.390;30.778;2024-02-21T05:35:09;100329.00;;;0.98;88.81
46448;BME280;32145;50.390;30.778;2024-02-21T05:38:06;100325.34;;;0.99;89.02
46448;BME280;32145;50.390;30.778;2024-02-21T05:41:01;100335.03;;;1.00;88.83
46448;BME280;32145;50.390;30.778;2024-02-21T05:43:55;100330.38;;;1.02;88.85
46448;BME280;32145;50.390;30.778;2024-02-21T05:46:49;100344.41;;;1.04;88.88
46448;BME280;32145;50.390;30.778;2024-02-21T05:49:43;100346.06;;;1.05;88.72
46448;BME280;32145;50.390;30.778;2024-02-21T05:52:38;100347.75;;;1.06;89.10
46448;BME280;32145;50.390;30.778;2024-02-21T05:55:34;100349.41;;;1.07;88.91
46448;BME280;32145;50.390;30.778;2024-02-21T05:58:28;100351.09;;;1.08;89.33
46448;BME280;32145;50.390;30.778;2024-02-21T06:01:22;100343.75;;;1.10;88.72
46448;BME280;32145;50.390;30.778;2024-02-21T06:04:17;100348.78;;;1.13;88.62
46448;BME280;32145;50.390;30.778;2024-02-21T06:07:11;100351.81;;;1.19;88.88
46448;BME280;32145;50.390;30.778;2024-02-21T06:10:06;100356.50;;;1.25;88.84
46448;BME280;32145;50.390;30.778;2024-02-21T06:13:03;100357.00;;;1.28;88.90
46448;BME280;32145;50.390;30.778;2024-02-21T06:15:57;100351.03;;;1.35;89.02
46448;BME280;32145;50.390;30.778;2024-02-21T06:18:52;100362.91;;;1.40;88.63
46448;BME280;32145;50.390;30.778;2024-02-21T06:21:46;100356.56;;;1.41;88.72
46448;BME280;32145;50.390;30.778;2024-02-21T06:24:41;100353.75;;;1.43;88.28
46448;BME280;32145;50.390;30.778;2024-02-21T06:27:35;100352.56;;;1.46;88.64
46448;BME280;32145;50.390;30.778;2024-02-21T06:30:30;100360.13;;;1.50;88.69
46448;BME280;32145;50.390;30.778;2024-02-21T06:33:25;100357.94;;;1.54;88.59
46448;BME280;32145;50.390;30.778;2024-02-21T06:36:19;100361.00;;;1.59;88.32
46448;BME280;32145;50.390;30.778;2024-02-21T06:39:13;100359.66;;;1.63;88.50
46448;BME280;32145;50.390;30.778;2024-02-21T06:42:10;100368.03;;;1.69;88.22
46448;BME280;32145;50.390;30.778;2024-02-21T06:45:06;100373.06;;;1.72;88.57
46448;BME280;32145;50.390;30.778;2024-02-21T06:48:04;100366.22;;;1.77;88.18
46448;BME280;32145;50.390;30.778;2024-02-21T06:51:01;100375.75;;;1.80;88.38
46448;BME280;32145;50.390;30.778;2024-02-21T06:53:57;100375.44;;;1.83;88.51
46448;BME280;32145;50.390;30.778;2024-02-21T06:56:54;100376.78;;;1.87;88.23
46448;BME280;32145;50.390;30.778;2024-02-21T06:59:50;100372.41;;;1.95;88.26
46448;BME280;32145;50.390;30.778;2024-02-21T07:02:48;100377.28;;;1.99;88.34
46448;BME280;32145;50.390;30.778;2024-02-21T07:05:46;100380.47;;;2.03;88.55
46448;BME280;32145;50.390;30.778;2024-02-21T07:08:42;100375.13;;;2.03;88.74
46448;BME280;32145;50.390;30.778;2024-02-21T07:11:38;100378.63;;;2.03;88.64
46448;BME280;32145;50.390;30.778;2024-02-21T07:14:35;100384.66;;;2.05;88.90
46448;BME280;32145;50.390;30.778;2024-02-21T07:17:32;100377.28;;;2.08;88.35
46448;BME280;32145;50.390;30.778;2024-02-21T07:20:28;100387.81;;;2.09;88.48
46448;BME280;32145;50.390;30.778;2024-02-21T07:23:26;100386.81;;;2.10;88.88
46448;BME280;32145;50.390;30.778;2024-02-21T07:26:23;100388.50;;;2.11;88.79
46448;BME280;32145;50.390;30.778;2024-02-21T07:29:19;100391.50;;;2.16;88.77
46448;BME280;32145;50.390;30.778;2024-02-21T07:32:15;100391.53;;;2.25;89.18
46448;BME280;32145;50.390;30.778;2024-02-21T07:35:10;100395.88;;;2.34;88.72
46448;BME280;32145;50.390;30.778;2024-02-21T07:38:04;100396.22;;;2.39;88.72
46448;BME280;32145;50.390;30.778;2024-02-21T07:41:01;100396.72;;;2.43;88.56
46448;BME280;32145;50.390;30.778;2024-02-21T07:43:58;100400.41;;;2.42;88.80
46448;BME280;32145;50.390;30.778;2024-02-21T07:46:54;100403.72;;;2.44;88.43
46448;BME280;32145;50.390;30.778;2024-02-21T07:49:50;100403.72;;;2.44;88.48
46448;BME280;32145;50.390;30.778;2024-02-21T07:52:47;100399.56;;;2.41;88.67
46448;BME280;32145;50.390;30.778;2024-02-21T07:55:43;100400.88;;;2.37;88.78
46448;BME280;32145;50.390;30.778;2024-02-21T07:58:41;100408.25;;;2.27;89.03
46448;BME280;32145;50.390;30.778;2024-02-21T08:01:37;100415.94;;;2.22;88.77
46448;BME280;32145;50.390;30.778;2024-02-21T08:04:33;100403.88;;;2.17;89.14
46448;BME280;32145;50.390;30.778;2024-02-21T08:07:30;100408.41;;;2.17;89.13
46448;BME280;32145;50.390;30.778;2024-02-21T08:10:26;100405.91;;;2.15;89.30
46448;BME280;32145;50.390;30.778;2024-02-21T08:13:23;100403.06;;;2.17;88.89
46448;BME280;32145;50.390;30.778;2024-02-21T08:16:20;100403.56;;;2.21;88.82
46448;BME280;32145;50.390;30.778;2024-02-21T08:19:16;100410.94;;;2.27;88.65
46448;BME280;32145;50.390;30.778;2024-02-21T08:22:13;100406.56;;;2.34;89.20
46448;BME280;32145;50.390;30.778;2024-02-21T08:25:09;100406.25;;;2.37;89.18
46448;BME280;32145;50.390;30.778;2024-02-21T08:28:05;100412.28;;;2.39;88.94
46448;BME280;32145;50.390;30.778;2024-02-21T08:31:00;100409.25;;;2.42;88.86
46448;BME280;32145;50.390;30.778;2024-02-21T08:33:55;100407.59;;;2.41;88.71
46448;BME280;32145;50.390;30.778;2024-02-21T08:36:52;100412.59;;;2.44;89.25
46448;BME280;32145;50.390;30.778;2024-02-21T08:39:48;100409.44;;;2.49;88.79
46448;BME280;32145;50.390;30.778;2024-02-21T08:42:45;100411.75;;;2.52;89.26
46448;BME280;32145;50.390;30.778;2024-02-21T08:45:41;100415.13;;;2.54;89.26
46448;BME280;32145;50.390;30.778;2024-02-21T08:48:37;100418.28;;;2.58;89.29
46448;BME280;32145;50.390;30.778;2024-02-21T08:51:35;100419.81;;;2.61;89.19
46448;BME280;32145;50.390;30.778;2024-02-21T08:54:32;100424.00;;;2.63;88.90
46448;BME280;32145;50.390;30.778;2024-02-21T08:57:29;100414.63;;;2.67;89.06
46448;BME280;32145;50.390;30.778;2024-02-21T09:00:25;100420.47;;;2.71;89.05
46448;BME280;32145;50.390;30.778;2024-02-21T09:03:21;100419.66;;;2.70;89.23
46448;BME280;32145;50.390;30.778;2024-02-21T09:06:18;100410.75;;;2.70;89.31
46448;BME280;32145;50.390;30.778;2024-02-21T09:09:16;100402.88;;;2.77;88.90
46448;BME280;32145;50.390;30.778;2024-02-21T09:12:12;100411.91;;;2.84;89.16
46448;BME280;32145;50.390;30.778;2024-02-21T09:15:09;100408.22;;;2.93;89.16
46448;BME280;32145;50.390;30.778;2024-02-21T09:18:05;100400.16;;;3.02;89.12
46448;BME280;32145;50.390;30.778;2024-02-21T09:21:01;100400.81;;;3.12;89.40
46448;BME280;32145;50.390;30.778;2024-02-21T09:23:57;100403.13;;;3.24;89.03
46448;BME280;32145;50.390;30.778;2024-02-21T09:26:55;100402.09;;;3.33;88.86
46448;BME280;32145;50.390;30.778;2024-02-21T09:29:52;100400.22;;;3.42;88.78
46448;BME280;32145;50.390;30.778;2024-02-21T09:32:48;100400.66;;;3.54;88.77
46448;BME280;32145;50.390;30.778;2024-02-21T09:35:45;100391.94;;;3.60;88.68
46448;BME280;32145;50.390;30.778;2024-02-21T09:38:41;100400.22;;;3.82;88.50
46448;BME280;32145;50.390;30.778;2024-02-21T09:41:41;100395.09;;;3.95;88.42
46448;BME280;32145;50.390;30.778;2024-02-21T09:44:44;100398.44;;;3.97;88.31
46448;BME280;32145;50.390;30.778;2024-02-21T09:47:50;100393.41;;;4.03;88.19
46448;BME280;32145;50.390;30.778;2024-02-21T09:50:47;100391.19;;;4.06;87.93
46448;BME280;32145;50.390;30.778;2024-02-21T09:53:43;100380.94;;;4.10;88.30
46448;BME280;32145;50.390;30.778;2024-02-21T09:56:38;100385.22;;;4.19;88.58
46448;BME280;32145;50.390;30.778;2024-02-21T09:59:33;100388.88;;;4.27;88.20
46448;BME280;32145;50.390;30.778;2024-02-21T10:02:29;100385.50;;;4.24;87.44
46448;BME280;32145;50.390;30.778;2024-02-21T10:05:23;100389.91;;;4.25;87.29
46448;BME280;32145;50.390;30.778;2024-02-21T10:08:18;100394.88;;;4.29;87.30
46448;BME280;32145;50.390;30.778;2024-02-21T10:11:22;100381.09;;;4.32;87.13
46448;BME280;32145;50.390;30.778;2024-02-21T10:14:16;100387.50;;;4.31;87.28
46448;BME280;32145;50.390;30.778;2024-02-21T10:17:16;100387.50;;;4.31;87.04
46448;BME280;32145;50.390;30.778;2024-02-21T10:20:14;100388.63;;;4.36;87.31
46448;BME280;32145;50.390;30.778;2024-02-21T10:23:10;100385.38;;;4.41;87.15
46448;BME280;32145;50.390;30.778;2024-02-21T10:26:07;100385.22;;;4.43;86.75
46448;BME280;32145;50.390;30.778;2024-02-21T10:29:03;100384.31;;;4.50;87.08
46448;BME280;32145;50.390;30.778;2024-02-21T10:32:05;100381.28;;;4.54;86.62
46448;BME280;32145;50.390;30.778;2024-02-21T10:35:02;100383.28;;;4.51;86.71
46448;BME280;32145;50.390;30.778;2024-02-21T10:38:00;100376.16;;;4.44;86.83
46448;BME280;32145;50.390;30.778;2024-02-21T10:40:56;100377.56;;;4.31;87.08
46448;BME280;32145;50.390;30.778;2024-02-21T10:43:54;100371.75;;;4.28;86.83
46448;BME280;32145;50.390;30.778;2024-02-21T10:46:52;100373.47;;;4.20;86.92
46448;BME280;32145;50.390;30.778;2024-02-21T10:49:50;100372.84;;;4.18;86.98
46448;BME280;32145;50.390;30.778;2024-02-21T10:53:01;100374.19;;;4.14;87.18
46448;BME280;32145;50.390;30.778;2024-02-21T10:56:09;100372.72;;;4.11;86.88
46448;BME280;32145;50.390;30.778;2024-02-21T10:59:07;100370.56;;;4.07;86.87
46448;BME280;32145;50.390;30.778;2024-02-21T11:02:02;100363.53;;;4.06;87.19
46448;BME280;32145;50.390;30.778;2024-02-21T11:04:57;100368.91;;;4.06;87.16
46448;BME280;32145;50.390;30.778;2024-02-21T11:07:52;100365.19;;;4.07;87.24
46448;BME280;32145;50.390;30.778;2024-02-21T11:10:48;100369.81;;;4.13;87.15
46448;BME280;32145;50.390;30.778;2024-02-21T11:13:42;100366.72;;;4.24;87.37
46448;BME280;32145;50.390;30.778;2024-02-21T11:16:37;100370.00;;;4.35;87.32
46448;BME280;32145;50.390;30.778;2024-02-21T11:19:31;100373.75;;;4.49;87.33
46448;BME280;32145;50.390;30.778;2024-02-21T11:22:26;100369.22;;;4.49;86.75
46448;BME280;32145;50.390;30.778;2024-02-21T11:25:23;100357.66;;;4.49;86.63
46448;BME280;32145;50.390;30.778;2024-02-21T11:28:25;100354.69;;;4.44;86.73
46448;BME280;32145;50.390;30.778;2024-02-21T11:31:20;100353.91;;;4.35;86.57
46448;BME280;32145;50.390;30.778;2024-02-21T11:34:17;100346.69;;;4.35;86.55
46448;BME280;32145;50.390;30.778;2024-02-21T11:37:15;100350.88;;;4.38;86.52
46448;BME280;32145;50.390;30.778;2024-02-21T11:40:10;100352.88;;;4.36;86.49
46448;BME280;32145;50.390;30.778;2024-02-21T11:43:04;100349.19;;;4.37;86.56
46448;BME280;32145;50.390;30.778;2024-02-21T11:46:01;100352.34;;;4.41;86.54
46448;BME280;32145;50.390;30.778;2024-02-21T11:48:55;100341.09;;;4.45;86.53
46448;BME280;32145;50.390;30.778;2024-02-21T11:51:57;100341.09;;;4.45;86.13
46448;BME280;32145;50.390;30.778;2024-02-21T11:54:54;100343.81;;;4.37;85.57
46448;BME280;32145;50.390;30.778;2024-02-21T11:57:51;100350.38;;;4.34;85.49
46448;BME280;32145;50.390;30.778;2024-02-21T12:00:47;100344.53;;;4.31;85.85
46448;BME280;32145;50.390;30.778;2024-02-21T12:03:43;100349.91;;;4.31;85.88
46448;BME280;32145;50.390;30.778;2024-02-21T12:06:38;100350.19;;;4.36;86.01
46448;BME280;32145;50.390;30.778;2024-02-21T12:09:34;100352.19;;;4.42;86.15
46448;BME280;32145;50.390;30.778;2024-02-21T12:12:28;100354.03;;;4.57;86.40
46448;BME280;32145;50.390;30.778;2024-02-21T12:15:22;100344.25;;;4.64;86.12
46448;BME280;32145;50.390;30.778;2024-02-21T12:18:17;100351.22;;;4.73;85.92
46448;BME280;32145;50.390;30.778;2024-02-21T12:21:12;100348.28;;;4.83;85.77
46448;BME280;32145;50.390;30.778;2024-02-21T12:24:13;100348.72;;;4.87;85.38
46448;BME280;32145;50.390;30.778;2024-02-21T12:27:09;100353.44;;;4.85;85.38
46448;BME280;32145;50.390;30.778;2024-02-21T12:30:07;100346.56;;;4.82;85.35
46448;BME280;32145;50.390;30.778;2024-02-21T12:33:03;100347.97;;;4.78;84.88
46448;BME280;32145;50.390;30.778;2024-02-21T12:36:00;100346.13;;;4.79;84.77
46448;BME280;32145;50.390;30.778;2024-02-21T12:38:57;100350.75;;;4.85;84.93
46448;BME280;32145;50.390;30.778;2024-02-21T12:41:53;100344.81;;;4.89;84.65
46448;BME280;32145;50.390;30.778;2024-02-21T12:44:50;100345.94;;;4.95;84.47
46448;BME280;32145;50.390;30.778;2024-02-21T12:47:46;100348.53;;;5.03;84.70
46448;BME280;32145;50.390;30.778;2024-02-21T12:50:48;100342.81;;;5.07;84.03
46448;BME280;32145;50.390;30.778;2024-02-21T12:53:45;100340.66;;;5.02;83.82
46448;BME280;32145;50.390;30.778;2024-02-21T12:56:42;100344.91;;;4.96;83.32
46448;BME280;32145;50.390;30.778;2024-02-21T12:59:39;100340.13;;;4.92;82.82
46448;BME280;32145;50.390;30.778;2024-02-21T13:02:33;100343.00;;;4.90;83.02
46448;BME280;32145;50.390;30.778;2024-02-21T13:05:30;100348.72;;;4.87;83.35
46448;BME280;32145;50.390;30.778;2024-02-21T13:08:25;100340.38;;;4.82;83.39
46448;BME280;32145;50.390;30.778;2024-02-21T13:11:19;100346.97;;;4.79;83.39
46448;BME280;32145;50.390;30.778;2024-02-21T13:14:15;100345.63;;;4.75;83.11
46448;BME280;32145;50.390;30.778;2024-02-21T13:17:10;100348.91;;;4.70;83.42
46448;BME280;32145;50.390;30.778;2024-02-21T13:20:05;100352.97;;;4.66;83.36
46448;BME280;32145;50.390;30.778;2024-02-21T13:23:00;100351.47;;;4.63;83.53
46448;BME280;32145;50.390;30.778;2024-02-21T13:25:54;100353.50;;;4.61;83.62
46448;BME280;32145;50.390;30.778;2024-02-21T13:28:48;100358.25;;;4.59;83.82
46448;BME280;32145;50.390;30.778;2024-02-21T13:31:44;100351.00;;;4.60;83.98
46448;BME280;32145;50.390;30.778;2024-02-21T13:34:38;100354.03;;;4.57;84.00
46448;BME280;32145;50.390;30.778;2024-02-21T13:37:32;100355.25;;;4.54;84.06
46448;BME280;32145;50.390;30.778;2024-02-21T13:40:27;100353.75;;;4.51;84.01
46448;BME280;32145;50.390;30.778;2024-02-21T13:43:23;100361.34;;;4.48;84.31
46448;BME280;32145;50.390;30.778;2024-02-21T13:46:19;100370.78;;;4.44;84.15
46448;BME280;32145;50.390;30.778;2024-02-21T13:49:17;100380.41;;;4.38;84.12
46448;BME280;32145;50.390;30.778;2024-02-21T13:52:15;100371.75;;;4.28;83.88
46448;BME280;32145;50.390;30.778;2024-02-21T13:55:11;100369.47;;;4.16;83.75
46448;BME280;32145;50.390;30.778;2024-02-21T13:58:08;100374.72;;;4.09;83.63
46448;BME280;32145;50.390;30.778;2024-02-21T14:01:04;100372.94;;;4.02;83.66
46448;BME280;32145;50.390;30.778;2024-02-21T14:04:00;100376.97;;;3.97;84.14
46448;BME280;32145;50.390;30.778;2024-02-21T14:06:58;100377.34;;;3.94;84.06
46448;BME280;32145;50.390;30.778;2024-02-21T14:09:56;100373.47;;;3.97;84.20
46448;BME280;32145;50.390;30.778;2024-02-21T14:12:52;100374.63;;;4.03;84.35
46448;BME280;32145;50.390;30.778;2024-02-21T14:15:49;100375.94;;;4.07;84.23
46448;BME280;32145;50.390;30.778;2024-02-21T14:18:43;100377.94;;;4.05;84.26
46448;BME280;32145;50.390;30.778;2024-02-21T14:21:38;100381.63;;;4.04;84.50
46448;BME280;32145;50.390;30.778;2024-02-21T14:24:34;100378.97;;;4.04;84.52
46448;BME280;32145;50.390;30.778;2024-02-21T14:27:28;100381.00;;;4.02;84.62
46448;BME280;32145;50.390;30.778;2024-02-21T14:30:22;100384.03;;;3.98;84.70
46448;BME280;32145;50.390;30.778;2024-02-21T14:33:17;100382.72;;;3.94;84.84
46448;BME280;32145;50.390;30.778;2024-02-21T14:36:13;100392.31;;;3.89;84.83
46448;BME280;32145;50.390;30.778;2024-02-21T14:39:09;100397.34;;;3.83;84.96
46448;BME280;32145;50.390;30.778;2024-02-21T14:42:07;100398.53;;;3.81;84.87
46448;BME280;32145;50.390;30.778;2024-02-21T14:45:05;100396.88;;;3.80;85.21
46448;BME280;32145;50.390;30.778;2024-02-21T14:48:01;100395.22;;;3.79;85.38
46448;BME280;32145;50.390;30.778;2024-02-21T14:50:57;100394.38;;;3.78;85.45
46448;BME280;32145;50.390;30.778;2024-02-21T14:53:54;100391.03;;;3.76;85.59
46448;BME280;32145;50.390;30.778;2024-02-21T14:56:50;100388.53;;;3.74;85.81
46448;BME280;32145;50.390;30.778;2024-02-21T14:59:48;100393.88;;;3.74;85.70
46448;BME280;32145;50.390;30.778;2024-02-21T15:02:44;100394.25;;;3.71;85.78
46448;BME280;32145;50.390;30.778;2024-02-21T15:05:40;100394.56;;;3.68;85.95
46448;BME280;32145;50.390;30.778;2024-02-21T15:08:37;100388.91;;;3.63;85.83
46448;BME280;32145;50.390;30.778;2024-02-21T15:11:33;100389.44;;;3.58;85.89
46448;BME280;32145;50.390;30.778;2024-02-21T15:14:29;100387.25;;;3.54;85.90
46448;BME280;32145;50.390;30.778;2024-02-21T15:17:27;100389.81;;;3.47;85.87